• Join FlightAware (Why Join?)
  • Login
  • US Flag 
03:20AM EDT


 

Airport Tracker/Info


-or-


 

Live Flight TrackerFlight Track Log ✈ N87CA ✈ 11-Jul-2013 ✈ KFTY - 4A6

Flight Track Log - Related Links

Times and Time Zones

All times are in EDT time to prevent confusion due to time zone crossing. See the N87CA flight status page for this flight to view local times or setup timezone preferences in your user account.

Time Position Orientation Groundspeed Altitude Reporting Facility
EDT Latitude Longitude Course Direction KTS MPH feet Rate Location/Type
09:29AM 33.8333 -84.5667 325° Northwest 146 168 2,900  Level Atlanta TRACON
09:30AM 33.8667 -84.5667 360° North 133 153 3,900 1,020 Climbing Atlanta TRACON
09:31AM 33.9000 -84.5833 337° Northwest 128 147 4,900 900 Climbing Atlanta TRACON
09:32AM 33.9333 -84.5833 360° North 129 148 5,800 840 Climbing Atlanta TRACON
09:33AM 33.9667 -84.6000 337° Northwest 132 152 6,700 780 Climbing Atlanta TRACON
09:35AM 34.0206 -84.6053 355° North 153 176 7,800 540 Climbing Atlanta Center
09:36AM 34.0581 -84.6106 353° North 142 163 8,000 60 Climbing Atlanta Center
09:37AM 34.1061 -84.6183 352° North 156 180 8,000 -60 Level Atlanta Center
09:38AM 34.1581 -84.6261 353° North 177 204 7,900 -60 Descending Atlanta Center
09:39AM 34.2039 -84.6467 340° North 177 204 7,900  Level Atlanta Center
09:40AM 34.2456 -84.6797 327° Northwest 177 204 7,900  Level Atlanta Center
09:41AM 34.2892 -84.7100 330° Northwest 182 209 8,000  Climbing Atlanta Center
09:42AM 34.3056 -84.7656 290° West 176 203 7,900 -60 Descending Atlanta Center
09:43AM 34.3261 -84.8286 292° West 176 203 7,900  Level Atlanta Center
09:44AM 34.3444 -84.8842 292° West 181 208 7,900  Level Atlanta Center
09:45AM 34.3608 -84.9397 290° West 181 208 7,900  Level Atlanta Center
09:46AM 34.3792 -85.0003 290° West 191 220 7,900  Level Atlanta Center
09:47AM 34.3975 -85.0583 291° West 191 220 7,900  Level Atlanta Center
09:48AM 34.4156 -85.1164 291° West 191 220 8,000 -120 Climbing Atlanta Center
09:49AM 34.4300 -85.1619 291° West 191 220 7,700 -300 Descending Atlanta Center
09:50AM 34.4500 -85.2303 290° West 191 220 7,400 -360 Descending Atlanta Center
09:51AM 34.4703 -85.2961 291° West 191 220 7,000 -420 Descending Atlanta Center
09:52AM 34.4906 -85.3594 291° West 196 226 6,600 -540 Descending Atlanta Center
09:53AM 34.5108 -85.4228 291° West 201 231 6,000 -600 Descending Atlanta Center
09:54AM 34.5328 -85.4886 292° West 212 244 5,400 -480 Descending Atlanta Center
09:55AM 34.5614 -85.5447 302° West 206 237 5,100 -540 Descending Atlanta Center
09:56AM 34.6025 -85.5908 317° Northwest 201 231 4,400 -540 Descending Atlanta Center
09:57AM 34.6481 -85.6294 325° Northwest 196 226 4,100 -180 Descending Atlanta Center
09:58AM 34.6872 -85.6656 323° Northwest 188 216 4,100  Level Atlanta Center
09:59AM 34.7264 -85.6992 325° Northwest 177 204 4,100  Level Atlanta Center
10:00AM 34.7636 -85.7353 321° Northwest 177 204 4,100  Level Atlanta Center
10:01AM 34.7964 -85.7664 322° Northwest 172 198 4,100 -60 Level Atlanta Center
10:02AM 34.8314 -85.8000 322° Northwest 155 178 4,000 -420 Descending Atlanta Center
10:04AM 34.8239 -85.8808 264° West 158 182 2,900 -480 Descending Atlanta Center
10:05AM 34.7922 -85.9131 220° Southwest 152 175 2,600 -240 Descending Atlanta Center
10:07AM 34.7350 -85.9775 223° Southwest 140 161 2,300 -180 Descending Atlanta Center